Vernon Rockville, Connecticut
Current Conditions -  °F | °C
As of 8:53 PM on Saturday 22 Nov 2014 (Local Time) from KHFD Reporting Station
Broken Clouds Broken Clouds  
Wind Chill: 36°   Ceiling: 3700
Heat Index: 42°   Visibility: 10mi
Dew Point: 18°   Wind: 10mph
Humidity: 38%   Direction: 200°SSW
Pressure: 30.17"   Gusts: NA
Location:  41.84°N, 72.47°W
Report Text: KHFD 230153Z AUTO 20009KT 10SM BKN037 06/M08 A3017 RMK AO2 SLP215 T00561078
Loading
Personal Weather Stations






























Interactive Weather Map New forecast layout! Learn more

10-Day Weather Forecast

Advertisements
Track Severe Weather on mobile